Terminal Aerodrome Forecast
Issued by NWS

Home | Current Version | Previous Version | Text Only | Print | Product List | Glossary On
Versions: 1 2 3 4 5 6 7 8 9 10 11 12 13 14
000
FTUS42 KJAX 292328
TAFCRG
TAF
KCRG 292328Z 3000/3024 VRB02KT P6SM SCT100
     FM300900 VRB02KT 4SM BR FEW100
     FM301300 16009KT P6SM SCT060=

USA.gov is the U.S. government's official web portal to all federal, state and local government web resources and services.